Morehead, Kentucky
Current Conditions -  °F | °C
As of 6:30 PM on Friday 19 Dec 2014 (Local Time) from KSYM Reporting Station
Broken Clouds Broken Clouds  
Wind Chill: 23°   Ceiling: 2900
Heat Index: 28°   Visibility: 10mi
Dew Point: 21°   Wind: 5mph
Humidity: 74%   Direction: 310°NW
Pressure: 30.3"   Gusts: NA
Location:  38.18°N, 83.44°W
Report Text: KSYM 192330Z AUTO 31004KT 10SM SCT023 BKN029 M02/M06 A3030 RMK AO2
Loading
Personal Weather Stations






























Interactive Weather Map New forecast layout! Learn more

10-Day Weather Forecast

Advertisements
Track Severe Weather on mobile